Time;durP1;ratioP1;P1;durP2;ratioP2;P2;SDS_P1;SDS_P2;PMS_P1;PMS_P2;Temp;Humidity;BMP_temperature;BMP_pressure;BME280_temperature;BME280_humidity;BME280_pressure;Samples;Min_cycle;Max_cycle;Signal;HPM_P1;HPM_P2
2023/12/03 00:00:53;;;;;;;28.23;12.50;;;1.10;99.90;;;;;;5034238;28;20049;-74
2023/12/03 00:03:20;;;;;;;31.02;12.00;;;1.10;99.90;;;;;;5046294;28;20044;-73
2023/12/03 00:05:46;;;;;;;25.23;11.57;;;1.10;99.90;;;;;;5069748;28;20048;-74
2023/12/03 00:08:12;;;;;;;30.67;12.90;;;1.10;99.90;;;;;;5046793;28;20052;-74
2023/12/03 00:10:37;;;;;;;25.13;10.77;;;1.10;99.90;;;;;;5045201;28;20613;-74
2023/12/03 00:13:03;;;;;;;28.88;12.65;;;1.10;99.90;;;;;;5042297;28;20069;-74
2023/12/03 00:15:29;;;;;;;24.17;12.23;;;1.10;99.90;;;;;;5038713;28;20041;-74
2023/12/03 00:17:54;;;;;;;29.25;12.57;;;1.10;99.90;;;;;;5050660;28;21044;-74
2023/12/03 00:20:20;;;;;;;27.90;12.95;;;1.10;99.90;;;;;;5036644;28;20029;-74
2023/12/03 00:22:46;;;;;;;32.40;13.32;;;1.10;99.90;;;;;;5039855;28;20127;-73
2023/12/03 00:25:12;;;;;;;26.95;12.70;;;1.10;99.90;;;;;;5040309;28;20140;-74
2023/12/03 00:27:37;;;;;;;29.33;12.73;;;1.10;99.90;;;;;;5035380;28;20128;-74
2023/12/03 00:30:03;;;;;;;29.90;12.50;;;1.10;99.90;;;;;;5036885;28;20060;-74
2023/12/03 00:32:29;;;;;;;31.90;13.60;;;1.10;99.90;;;;;;5039940;28;20397;-74
2023/12/03 00:34:54;;;;;;;29.05;12.93;;;1.10;99.90;;;;;;5035671;28;20049;-74
2023/12/03 00:37:20;;;;;;;23.50;10.88;;;1.10;99.90;;;;;;5041587;28;20049;-74
2023/12/03 00:39:46;;;;;;;24.90;11.02;;;1.10;99.90;;;;;;5039606;28;20045;-74
2023/12/03 00:42:11;;;;;;;30.52;12.27;;;1.10;99.90;;;;;;5036868;28;20053;-74
2023/12/03 00:44:37;;;;;;;27.33;12.32;;;1.10;99.90;;;;;;5044871;28;20103;-74
2023/12/03 00:47:02;;;;;;;23.90;11.35;;;1.00;99.90;;;;;;5032555;28;20037;-74
2023/12/03 00:49:28;;;;;;;25.85;11.68;;;1.10;99.90;;;;;;5040913;28;20147;-74
2023/12/03 00:51:54;;;;;;;23.42;11.88;;;1.10;99.90;;;;;;5037238;28;20724;-74
2023/12/03 00:54:20;;;;;;;29.90;12.05;;;1.10;99.90;;;;;;5038422;28;20458;-74
2023/12/03 00:56:45;;;;;;;28.70;11.77;;;1.10;99.90;;;;;;5065275;28;20064;-74
2023/12/03 00:59:11;;;;;;;22.02;11.05;;;1.10;99.90;;;;;;5035429;28;20052;-74
2023/12/03 01:01:36;;;;;;;24.85;11.32;;;1.10;99.90;;;;;;5043646;28;20052;-74
2023/12/03 01:04:02;;;;;;;27.05;11.77;;;1.10;99.90;;;;;;5043333;28;20384;-74
2023/12/03 01:06:28;;;;;;;23.75;10.10;;;1.10;99.90;;;;;;5040429;28;20049;-74
2023/12/03 01:08:53;;;;;;;25.30;11.60;;;1.10;99.90;;;;;;5038976;28;20161;-73
2023/12/03 01:11:19;;;;;;;25.73;12.23;;;1.10;99.90;;;;;;5039604;28;20040;-74
2023/12/03 01:13:45;;;;;;;28.15;12.63;;;1.10;99.90;;;;;;5036426;28;20040;-73
2023/12/03 01:16:15;;;;;;;21.27;10.57;;;1.10;99.90;;;;;;5045032;28;20049;-73
2023/12/03 01:18:41;;;;;;;25.05;11.55;;;1.10;99.90;;;;;;5055194;28;20052;-73
2023/12/03 01:21:07;;;;;;;29.30;12.32;;;1.20;99.90;;;;;;5039253;28;20037;-73
2023/12/03 01:23:33;;;;;;;31.38;13.30;;;1.20;99.90;;;;;;5037799;28;20053;-73
2023/12/03 01:25:58;;;;;;;25.10;11.90;;;1.20;99.90;;;;;;5046820;28;20084;-74
2023/12/03 01:28:24;;;;;;;28.55;13.02;;;1.20;99.90;;;;;;5037393;28;20040;-73
2023/12/03 01:30:50;;;;;;;31.10;13.18;;;1.20;99.90;;;;;;5036918;28;20044;-73
2023/12/03 01:33:15;;;;;;;24.17;12.55;;;1.20;99.90;;;;;;5040540;28;22053;-74
2023/12/03 01:35:41;;;;;;;28.63;11.75;;;1.20;99.90;;;;;;5039360;28;20090;-73
2023/12/03 01:38:07;;;;;;;31.75;13.02;;;1.20;99.90;;;;;;5041266;28;20119;-74
2023/12/03 01:40:33;;;;;;;33.92;14.15;;;1.20;99.90;;;;;;5048311;28;20128;-73
2023/12/03 01:42:59;;;;;;;28.80;12.88;;;1.20;99.90;;;;;;5045101;28;20127;-74
2023/12/03 01:45:25;;;;;;;27.13;13.18;;;1.20;99.90;;;;;;5036465;28;20076;-73
2023/12/03 01:47:51;;;;;;;30.65;13.52;;;1.20;99.90;;;;;;5041852;28;20045;-72
2023/12/03 01:50:18;;;;;;;31.95;13.75;;;1.20;99.90;;;;;;5063149;28;20068;-73
2023/12/03 01:52:44;;;;;;;31.58;14.45;;;1.20;99.90;;;;;;5036828;28;20396;-73
2023/12/03 01:55:16;;;;;;;29.80;13.85;;;1.20;99.90;;;;;;5034797;28;20080;-73
2023/12/03 01:57:42;;;;;;;30.20;13.95;;;1.20;99.90;;;;;;5044942;28;20076;-74
2023/12/03 02:00:09;;;;;;;30.83;13.40;;;1.20;99.90;;;;;;5049175;28;20052;-74
2023/12/03 02:02:35;;;;;;;29.42;13.88;;;1.20;99.90;;;;;;5043397;28;20102;-73
2023/12/03 02:05:01;;;;;;;31.05;13.68;;;1.20;99.90;;;;;;5049988;28;20465;-74
2023/12/03 02:07:26;;;;;;;31.70;13.80;;;1.20;99.90;;;;;;5044414;28;20049;-74
2023/12/03 02:09:52;;;;;;;25.52;12.25;;;1.20;99.90;;;;;;5049302;28;20116;-73
2023/12/03 02:12:18;;;;;;;27.90;12.98;;;1.20;99.90;;;;;;5050034;28;20500;-74
2023/12/03 02:14:44;;;;;;;31.90;13.32;;;1.20;99.90;;;;;;5047261;28;20143;-73
2023/12/03 02:17:09;;;;;;;33.88;15.07;;;1.20;99.90;;;;;;5048388;28;20052;-73
2023/12/03 02:19:35;;;;;;;28.45;12.98;;;1.20;99.90;;;;;;5065327;28;20132;-73
2023/12/03 02:22:00;;;;;;;24.98;12.40;;;1.20;99.90;;;;;;5047006;28;20045;-73
2023/12/03 02:24:26;;;;;;;33.33;13.90;;;1.10;99.90;;;;;;5049511;28;20025;-74
2023/12/03 02:26:52;;;;;;;30.13;13.93;;;1.10;99.90;;;;;;5055091;28;20052;-73
2023/12/03 02:29:17;;;;;;;33.17;13.05;;;1.10;99.90;;;;;;5046731;28;20056;-73
2023/12/03 02:31:43;;;;;;;30.17;14.05;;;1.10;99.90;;;;;;5042110;28;20503;-73
2023/12/03 02:34:12;;;;;;;31.85;14.48;;;1.10;99.90;;;;;;5040542;28;20045;-73
2023/12/03 02:36:38;;;;;;;38.00;14.75;;;1.10;99.90;;;;;;5051557;28;21642;-73
2023/12/03 02:39:04;;;;;;;33.00;14.13;;;1.10;99.90;;;;;;5046064;28;20064;-74
2023/12/03 02:41:30;;;;;;;33.55;15.32;;;1.10;99.90;;;;;;5047142;28;20041;-73
2023/12/03 02:43:56;;;;;;;31.83;13.13;;;1.10;99.90;;;;;;5049923;28;20120;-73
2023/12/03 02:46:22;;;;;;;34.10;15.27;;;1.10;99.90;;;;;;5044623;28;20525;-74
2023/12/03 02:48:47;;;;;;;41.92;14.80;;;1.10;99.90;;;;;;5041465;28;20076;-74
2023/12/03 02:51:13;;;;;;;40.63;16.33;;;1.10;99.90;;;;;;5045142;28;20041;-73
2023/12/03 02:53:39;;;;;;;33.92;13.43;;;1.10;99.90;;;;;;5046086;28;20049;-74
2023/12/03 02:56:06;;;;;;;32.13;14.05;;;1.10;99.90;;;;;;5049000;28;20043;-74
2023/12/03 02:58:32;;;;;;;35.85;14.13;;;1.00;99.90;;;;;;5045312;28;20098;-74
2023/12/03 03:00:58;;;;;;;27.15;12.32;;;1.10;99.90;;;;;;5045987;28;20502;-73
2023/12/03 03:03:24;;;;;;;31.77;13.02;;;1.00;99.90;;;;;;5041090;28;20051;-73
2023/12/03 03:05:49;;;;;;;30.58;13.50;;;1.00;99.90;;;;;;5047822;28;20040;-73
2023/12/03 03:08:15;;;;;;;27.85;13.27;;;1.10;99.90;;;;;;5045092;28;20052;-73
2023/12/03 03:10:41;;;;;;;33.58;12.95;;;1.00;99.90;;;;;;5050468;28;20036;-74
2023/12/03 03:13:08;;;;;;;28.67;11.65;;;1.00;99.90;;;;;;5047310;28;20488;-73
2023/12/03 03:15:34;;;;;;;;;;;1.00;99.90;;;;;;5047524;28;20049;-73
2023/12/03 03:18:00;;;;;;;24.92;11.20;;;1.00;99.90;;;;;;5044156;28;19921;-73
2023/12/03 03:20:25;;;;;;;29.52;10.73;;;1.00;99.90;;;;;;5048083;28;20052;-73
2023/12/03 03:22:51;;;;;;;29.27;12.80;;;1.00;99.90;;;;;;5058685;28;20037;-73
2023/12/03 03:25:17;;;;;;;24.27;10.75;;;1.10;99.90;;;;;;5051033;28;20393;-73
2023/12/03 03:27:43;;;;;;;27.30;11.85;;;1.10;99.90;;;;;;5042488;28;21963;-74
2023/12/03 03:30:10;;;;;;;31.40;11.95;;;1.10;99.90;;;;;;5042700;28;20569;-73
2023/12/03 03:32:35;;;;;;;27.20;11.27;;;1.10;99.90;;;;;;5037483;28;20049;-73
2023/12/03 03:35:02;;;;;;;31.42;13.50;;;1.10;99.90;;;;;;5048863;28;20063;-73
2023/12/03 03:37:28;;;;;;;38.90;12.80;;;1.10;99.90;;;;;;5050799;28;20052;-74
2023/12/03 03:39:54;;;;;;;30.58;11.63;;;1.10;99.90;;;;;;5052878;28;20037;-74
2023/12/03 03:42:20;;;;;;;32.42;12.23;;;1.10;99.90;;;;;;5041855;28;20057;-73
2023/12/03 03:44:46;;;;;;;32.63;15.90;;;1.10;99.90;;;;;;5046621;28;20041;-73
2023/12/03 03:47:16;;;;;;;33.83;13.23;;;1.10;99.90;;;;;;5048683;28;20303;-74
2023/12/03 03:49:42;;;;;;;33.35;13.43;;;1.10;99.90;;;;;;5037817;28;20060;-74
2023/12/03 03:52:08;;;;;;;32.85;12.75;;;1.10;99.90;;;;;;5046611;28;20044;-73
2023/12/03 03:54:33;;;;;;;28.48;11.07;;;1.10;99.90;;;;;;5051517;28;20053;-74
2023/12/03 03:56:59;;;;;;;35.17;12.45;;;1.10;99.90;;;;;;5048821;28;20048;-74
2023/12/03 03:59:25;;;;;;;32.63;12.77;;;1.10;99.90;;;;;;5042993;28;20056;-74
2023/12/03 04:01:51;;;;;;;34.03;13.38;;;1.10;99.90;;;;;;5048040;28;20055;-74
2023/12/03 04:04:17;;;;;;;33.50;13.43;;;1.10;99.90;;;;;;5041759;28;20041;-74
2023/12/03 04:06:47;;;;;;;33.50;12.77;;;1.10;99.90;;;;;;5037928;28;20064;-74
2023/12/03 04:09:13;;;;;;;25.92;12.18;;;1.20;99.90;;;;;;5041533;28;20106;-74
2023/12/03 04:11:44;;;;;;;34.13;13.70;;;1.20;99.90;;;;;;5040077;28;20049;-74
2023/12/03 04:14:19;;;;;;;37.30;13.82;;;1.20;99.90;;;;;;5044162;28;20873;-73
2023/12/03 04:16:45;;;;;;;32.90;13.75;;;1.20;99.90;;;;;;5040228;28;20103;-74
2023/12/03 04:19:11;;;;;;;41.00;14.80;;;1.20;99.90;;;;;;5040723;28;20111;-74
2023/12/03 04:21:38;;;;;;;34.92;13.02;;;1.20;99.90;;;;;;5051910;28;20053;-73
2023/12/03 04:24:04;;;;;;;33.40;14.43;;;1.20;99.90;;;;;;5041542;28;20069;-73
2023/12/03 04:26:29;;;;;;;29.38;13.15;;;1.20;99.90;;;;;;5045519;28;20083;-74
2023/12/03 04:28:55;;;;;;;31.77;12.00;;;1.20;99.90;;;;;;5048765;28;20090;-74
2023/12/03 04:31:23;;;;;;;29.38;11.00;;;1.20;99.90;;;;;;5039400;28;20036;-73
2023/12/03 04:33:54;;;;;;;28.55;11.38;;;1.20;99.90;;;;;;5033892;28;20481;-74
2023/12/03 04:36:23;;;;;;;31.23;10.57;;;1.20;99.90;;;;;;5039880;28;20178;-73
2023/12/03 04:38:50;;;;;;;30.00;12.00;;;1.20;99.90;;;;;;5045093;28;20041;-74
2023/12/03 04:41:16;;;;;;;25.80;9.77;;;1.20;99.90;;;;;;5048480;28;20124;-74
2023/12/03 04:43:42;;;;;;;22.30;9.38;;;1.20;99.90;;;;;;5043155;28;20131;-73
2023/12/03 04:46:08;;;;;;;28.02;12.45;;;1.20;99.90;;;;;;5043543;28;20044;-74
2023/12/03 04:48:34;;;;;;;31.88;11.57;;;1.20;99.90;;;;;;5039498;28;20111;-74
2023/12/03 04:51:01;;;;;;;29.50;12.40;;;1.20;99.90;;;;;;5041907;28;20053;-74
2023/12/03 04:53:26;;;;;;;28.77;10.48;;;1.20;99.90;;;;;;5045021;28;20041;-74
2023/12/03 04:55:52;;;;;;;32.33;11.52;;;1.20;99.90;;;;;;5045364;28;20513;-74
2023/12/03 04:58:18;;;;;;;25.05;10.18;;;1.20;99.90;;;;;;5045014;28;20447;-74
2023/12/03 05:00:43;;;;;;;31.33;11.13;;;1.20;99.90;;;;;;5042734;28;20048;-74
2023/12/03 05:03:09;;;;;;;27.17;10.38;;;1.20;99.90;;;;;;5040206;28;20413;-74
2023/12/03 05:05:35;;;;;;;29.70;11.27;;;1.20;99.90;;;;;;5046303;28;20053;-74
2023/12/03 05:08:00;;;;;;;28.92;12.02;;;1.20;99.90;;;;;;5037364;28;20088;-74
2023/12/03 05:10:26;;;;;;;28.70;11.25;;;1.30;99.90;;;;;;5042158;28;20041;-74
2023/12/03 05:12:52;;;;;;;25.15;10.50;;;1.20;99.90;;;;;;5046838;28;20048;-74
2023/12/03 05:15:17;;;;;;;25.33;10.05;;;1.30;99.90;;;;;;5046172;28;20048;-73
2023/12/03 05:17:43;;;;;;;29.25;11.65;;;1.30;99.90;;;;;;5035895;28;20124;-73
2023/12/03 05:20:09;;;;;;;24.65;10.15;;;1.30;99.90;;;;;;5045105;28;20048;-73
2023/12/03 05:22:35;;;;;;;26.20;10.13;;;1.30;99.90;;;;;;5046910;28;20386;-74
2023/12/03 05:25:01;;;;;;;25.48;11.25;;;1.30;99.90;;;;;;5043575;28;20043;-74
2023/12/03 05:27:29;;;;;;;20.70;8.88;;;1.30;99.90;;;;;;5034230;28;20038;-73
2023/12/03 05:29:55;;;;;;;24.25;8.32;;;1.30;99.90;;;;;;5043860;28;20451;-73
2023/12/03 05:32:21;;;;;;;23.33;10.13;;;1.30;99.90;;;;;;5036812;28;20029;-74
2023/12/03 05:34:47;;;;;;;28.17;10.75;;;1.30;99.90;;;;;;5041059;28;20043;-73
2023/12/03 05:37:13;;;;;;;24.58;10.13;;;1.30;99.90;;;;;;5045035;28;20037;-74
2023/12/03 05:39:42;;;;;;;22.00;8.75;;;1.30;99.90;;;;;;5047636;28;20069;-73
2023/12/03 05:42:08;;;;;;;24.92;9.63;;;1.40;99.90;;;;;;5051834;28;20041;-74
2023/12/03 05:44:33;;;;;;;29.95;10.70;;;1.40;99.90;;;;;;5047625;28;21737;-73
2023/12/03 05:47:00;;;;;;;26.17;10.57;;;1.40;99.90;;;;;;5048409;28;20469;-74
2023/12/03 05:49:26;;;;;;;27.55;11.00;;;1.40;99.90;;;;;;5047038;28;20127;-74
2023/12/03 05:51:51;;;;;;;25.13;11.68;;;1.40;99.90;;;;;;5049091;28;20129;-73
2023/12/03 05:54:17;;;;;;;31.67;12.27;;;1.50;99.90;;;;;;5049836;28;20047;-73
2023/12/03 05:56:44;;;;;;;26.63;11.20;;;1.50;99.90;;;;;;5048936;28;20520;-73
2023/12/03 05:59:11;;;;;;;27.45;11.20;;;1.50;99.90;;;;;;5050177;28;20103;-73
2023/12/03 06:01:36;;;;;;;32.88;10.93;;;1.50;99.90;;;;;;5048274;28;20045;-73
2023/12/03 06:04:06;;;;;;;25.80;11.32;;;1.60;99.90;;;;;;5045288;28;20547;-73
2023/12/03 06:06:33;;;;;;;29.73;11.43;;;1.60;99.90;;;;;;5048749;28;20076;-73
2023/12/03 06:08:58;;;;;;;29.63;11.13;;;1.60;99.90;;;;;;5049042;28;20599;-74
2023/12/03 06:11:24;;;;;;;26.83;10.77;;;1.60;99.90;;;;;;5048118;28;20137;-74
2023/12/03 06:13:50;;;;;;;32.78;11.43;;;1.60;99.90;;;;;;5045213;28;20494;-74
2023/12/03 06:16:15;;;;;;;30.60;12.23;;;1.70;99.90;;;;;;5050350;28;20048;-73
2023/12/03 06:18:42;;;;;;;28.23;11.32;;;1.70;99.90;;;;;;5044462;28;20100;-73
2023/12/03 06:21:08;;;;;;;34.97;13.00;;;1.70;99.90;;;;;;5042826;28;20126;-73
2023/12/03 06:23:34;;;;;;;37.67;13.32;;;1.70;99.90;;;;;;5047367;28;20045;-73
2023/12/03 06:25:59;;;;;;;30.40;12.13;;;1.70;99.90;;;;;;5046884;28;20048;-74
2023/12/03 06:28:25;;;;;;;27.60;10.13;;;1.70;99.90;;;;;;5050453;28;20589;-73
2023/12/03 06:30:51;;;;;;;31.45;11.55;;;1.70;99.90;;;;;;5043761;28;20055;-73
2023/12/03 06:33:18;;;;;;;29.90;10.80;;;1.70;99.90;;;;;;5035557;28;20559;-73
2023/12/03 06:35:45;;;;;;;32.40;10.93;;;1.70;99.90;;;;;;5048468;28;20428;-73
2023/12/03 06:38:10;;;;;;;27.77;11.60;;;1.70;99.90;;;;;;5039708;28;20403;-73
2023/12/03 06:40:36;;;;;;;32.00;11.85;;;1.70;99.90;;;;;;5041652;28;20045;-74
2023/12/03 06:43:02;;;;;;;28.60;10.30;;;1.70;99.90;;;;;;5054793;28;20397;-73
2023/12/03 06:45:27;;;;;;;31.08;10.90;;;1.70;99.90;;;;;;5046621;28;20061;-74
2023/12/03 06:47:53;;;;;;;28.00;11.68;;;1.80;99.90;;;;;;5045688;28;20434;-73
2023/12/03 06:50:19;;;;;;;36.30;12.80;;;1.80;99.90;;;;;;5043624;28;20055;-73
2023/12/03 06:52:45;;;;;;;38.22;13.85;;;1.80;99.90;;;;;;5051202;28;20131;-74
2023/12/03 06:55:12;;;;;;;36.05;13.70;;;1.80;99.90;;;;;;5059986;28;20039;-73
2023/12/03 06:57:37;;;;;;;30.88;12.27;;;1.80;99.90;;;;;;5049881;28;20051;-73
2023/12/03 07:00:06;;;;;;;33.58;12.90;;;1.80;99.90;;;;;;5040249;28;20053;-73
2023/12/03 07:02:32;;;;;;;35.00;13.00;;;1.80;99.90;;;;;;5038034;28;20057;-73
2023/12/03 07:04:57;;;;;;;38.03;13.43;;;1.70;99.90;;;;;;5043259;28;20051;-73
2023/12/03 07:07:23;;;;;;;30.20;11.40;;;1.80;99.90;;;;;;5043512;28;20040;-73
2023/12/03 07:09:49;;;;;;;42.17;14.18;;;1.80;99.90;;;;;;5040057;28;20065;-74
2023/12/03 07:12:15;;;;;;;36.83;13.13;;;1.80;99.90;;;;;;5041472;28;20041;-74
2023/12/03 07:14:40;;;;;;;31.63;12.00;;;1.80;99.90;;;;;;5042863;28;20041;-73
2023/12/03 07:17:06;;;;;;;34.33;12.48;;;1.80;99.90;;;;;;5051579;28;20162;-73
2023/12/03 07:19:32;;;;;;;38.33;11.82;;;1.70;99.90;;;;;;5046475;28;20114;-73
2023/12/03 07:21:58;;;;;;;39.70;13.85;;;1.80;99.90;;;;;;5043316;28;20060;-73
2023/12/03 07:24:23;;;;;;;34.63;12.68;;;1.80;99.90;;;;;;5049473;28;20048;-73
2023/12/03 07:26:49;;;;;;;40.42;11.98;;;1.80;99.90;;;;;;5050638;28;20411;-74
2023/12/03 07:29:17;;;;;;;36.55;12.57;;;1.80;99.90;;;;;;5047713;28;20139;-74
2023/12/03 07:31:43;;;;;;;37.55;13.52;;;1.80;99.90;;;;;;5046966;28;20041;-74
2023/12/03 07:34:09;;;;;;;37.17;12.77;;;1.80;99.90;;;;;;5048137;28;20673;-74
2023/12/03 07:36:34;;;;;;;39.42;13.50;;;1.80;99.90;;;;;;5045608;28;20080;-74
2023/12/03 07:39:00;;;;;;;36.35;12.23;;;1.80;99.90;;;;;;5049793;28;20127;-74
2023/12/03 07:41:26;;;;;;;37.08;14.15;;;1.80;99.90;;;;;;5043864;28;20103;-73
2023/12/03 07:43:51;;;;;;;38.67;13.07;;;1.80;99.90;;;;;;5050179;28;20037;-76
2023/12/03 07:46:18;;;;;;;45.78;14.13;;;1.90;99.90;;;;;;5044763;28;20044;-72
2023/12/03 07:48:44;;;;;;;39.37;14.90;;;1.90;99.90;;;;;;5041928;28;20060;-73
2023/12/03 07:51:10;;;;;;;33.13;11.57;;;1.90;99.90;;;;;;5048816;28;20488;-73
2023/12/03 07:53:36;;;;;;;42.88;13.05;;;1.90;99.90;;;;;;5050703;28;20106;-72
2023/12/03 07:56:03;;;;;;;40.92;13.48;;;1.90;99.90;;;;;;5047136;28;20463;-72
2023/12/03 07:58:29;;;;;;;45.42;14.00;;;1.90;99.90;;;;;;5047398;28;20562;-70
2023/12/03 08:00:55;;;;;;;37.10;13.43;;;1.90;99.90;;;;;;5052992;28;20053;-71
2023/12/03 08:03:20;;;;;;;35.80;13.85;;;1.90;99.90;;;;;;5047717;28;20037;-71
2023/12/03 08:05:46;;;;;;;38.47;14.15;;;1.90;99.90;;;;;;5049690;28;20083;-71
2023/12/03 08:08:12;;;;;;;45.28;15.43;;;1.90;99.90;;;;;;5052188;28;20044;-71
2023/12/03 08:10:37;;;;;;;38.05;13.65;;;1.90;99.90;;;;;;5050985;28;20068;-71
2023/12/03 08:13:03;;;;;;;35.90;14.55;;;2.00;99.90;;;;;;5043885;28;20037;-72
2023/12/03 08:15:28;;;;;;;38.60;14.35;;;2.00;99.90;;;;;;5050352;28;20064;-72
2023/12/03 08:17:54;;;;;;;40.65;15.00;;;2.00;99.90;;;;;;5044131;28;20040;-72
2023/12/03 08:20:19;;;;;;;37.50;13.43;;;2.10;99.90;;;;;;5051189;28;20114;-72
2023/12/03 08:22:46;;;;;;;43.20;13.25;;;2.00;99.90;;;;;;5031210;28;20103;-73
2023/12/03 08:25:12;;;;;;;34.88;13.07;;;2.00;99.90;;;;;;5044301;28;20121;-72
2023/12/03 08:27:38;;;;;;;36.92;14.38;;;2.10;99.90;;;;;;5048389;28;20107;-73
2023/12/03 08:30:04;;;;;;;38.88;13.38;;;2.00;99.90;;;;;;5045208;28;20051;-73
2023/12/03 08:32:30;;;;;;;36.17;13.70;;;2.10;99.90;;;;;;5053350;28;20484;-73
2023/12/03 08:34:56;;;;;;;36.03;14.98;;;2.10;99.90;;;;;;5050125;28;20051;-74
2023/12/03 08:37:21;;;;;;;35.85;13.25;;;2.10;99.90;;;;;;5041063;28;20443;-75
2023/12/03 08:39:47;;;;;;;36.30;13.55;;;2.10;99.90;;;;;;5046733;28;20135;-75
2023/12/03 08:42:13;;;;;;;36.00;12.75;;;2.10;99.90;;;;;;5038728;28;20040;-75
2023/12/03 08:44:38;;;;;;;38.08;13.70;;;2.10;99.90;;;;;;5046646;28;20052;-75
2023/12/03 08:47:04;;;;;;;37.20;14.20;;;2.20;99.90;;;;;;5042117;28;20069;-74
2023/12/03 08:49:30;;;;;;;38.95;13.73;;;2.20;99.90;;;;;;5046609;28;20041;-75
2023/12/03 08:51:55;;;;;;;38.10;12.45;;;2.20;99.90;;;;;;5045386;28;20052;-76
2023/12/03 08:54:21;;;;;;;38.03;14.45;;;2.20;99.90;;;;;;5037889;28;20037;-74
2023/12/03 08:56:47;;;;;;;41.45;13.10;;;2.20;99.90;;;;;;5041207;28;20061;-75
2023/12/03 08:59:12;;;;;;;35.15;14.25;;;2.20;99.90;;;;;;5045732;28;20056;-75
2023/12/03 09:01:41;;;;;;;35.50;12.23;;;2.20;99.90;;;;;;5047376;28;20086;-74
2023/12/03 09:04:07;;;;;;;34.95;14.13;;;2.30;99.90;;;;;;5042160;28;20045;-75
2023/12/03 09:06:32;;;;;;;40.78;15.65;;;2.30;99.90;;;;;;5027403;28;20136;-74
2023/12/03 09:08:58;;;;;;;38.30;15.10;;;2.30;99.90;;;;;;5040010;28;20057;-75
2023/12/03 09:11:24;;;;;;;43.80;15.07;;;2.40;99.90;;;;;;5044944;28;20041;-75
2023/12/03 09:13:50;;;;;;;39.30;16.65;;;2.40;99.90;;;;;;5037214;28;20041;-75
2023/12/03 09:16:15;;;;;;;46.33;16.17;;;2.40;99.90;;;;;;5045853;28;20514;-75
2023/12/03 09:18:41;;;;;;;43.50;16.38;;;2.40;99.90;;;;;;5041903;28;20053;-75
2023/12/03 09:21:08;;;;;;;40.58;14.52;;;2.40;99.90;;;;;;5035684;28;20055;-75
2023/12/03 09:23:34;;;;;;;40.63;17.02;;;2.50;99.90;;;;;;5038240;28;20056;-75
2023/12/03 09:26:01;;;;;;;44.00;18.23;;;2.50;99.90;;;;;;5037613;28;20396;-75
2023/12/03 09:28:29;;;;;;;44.10;16.73;;;2.50;99.90;;;;;;5034578;28;20048;-76
2023/12/03 09:30:56;;;;;;;37.80;16.58;;;2.50;99.90;;;;;;5040697;28;20098;-75
2023/12/03 09:33:21;;;;;;;36.78;15.25;;;2.60;99.90;;;;;;5057095;28;20076;-76
2023/12/03 09:35:47;;;;;;;39.17;17.25;;;2.60;99.90;;;;;;5042792;28;20044;-74
2023/12/03 09:38:13;;;;;;;31.98;13.68;;;2.60;99.90;;;;;;5038648;28;20045;-75
2023/12/03 09:40:38;;;;;;;41.58;17.00;;;2.60;99.90;;;;;;5039319;28;20043;-75
2023/12/03 09:43:05;;;;;;;39.50;14.07;;;2.70;99.90;;;;;;5041956;28;20059;-75
2023/12/03 09:45:33;;;;;;;42.50;17.05;;;2.70;99.90;;;;;;5033801;28;20052;-75
2023/12/03 09:48:03;;;;;;;42.55;16.77;;;2.70;99.90;;;;;;5039950;28;20049;-75
2023/12/03 09:50:34;;;;;;;39.80;17.13;;;2.70;99.90;;;;;;5044622;28;20075;-75
2023/12/03 09:53:04;;;;;;;44.42;17.55;;;2.70;99.90;;;;;;5043825;28;20810;-75
2023/12/03 09:55:32;;;;;;;49.50;19.85;;;2.80;99.90;;;;;;5045175;28;20695;-75
2023/12/03 09:58:00;;;;;;;46.78;21.98;;;2.80;99.90;;;;;;5043145;28;20037;-75
2023/12/03 10:00:26;;;;;;;41.88;18.63;;;3.00;99.90;;;;;;5039725;28;20060;-76
2023/12/03 10:02:53;;;;;;;39.80;18.00;;;3.00;99.90;;;;;;5034172;28;20045;-76
2023/12/03 10:05:19;;;;;;;34.58;17.35;;;3.00;99.90;;;;;;5038659;28;20041;-76
2023/12/03 10:07:51;;;;;;;42.30;18.92;;;3.10;99.90;;;;;;5045067;28;20051;-76
2023/12/03 10:10:19;;;;;;;36.13;16.60;;;3.00;99.90;;;;;;5043167;28;20048;-75
2023/12/03 10:12:48;;;;;;;36.08;16.67;;;3.00;99.90;;;;;;5043682;28;20044;-75
2023/12/03 10:15:14;;;;;;;42.17;18.25;;;3.00;99.90;;;;;;5038009;28;20052;-75
2023/12/03 10:17:41;;;;;;;38.50;18.08;;;3.00;99.90;;;;;;5044557;28;20098;-75
2023/12/03 10:20:21;;;;;;;34.95;16.33;;;3.00;99.90;;;;;;5047021;28;20049;-75
2023/12/03 10:22:48;;;;;;;35.60;15.55;;;3.10;99.90;;;;;;5048635;28;20055;-75
2023/12/03 10:25:33;;;;;;;40.42;17.45;;;3.10;99.90;;;;;;5052825;28;20041;-74
2023/12/03 10:28:04;;;;;;;40.03;18.50;;;3.10;99.90;;;;;;5058844;28;20045;-75
2023/12/03 10:30:31;;;;;;;33.67;16.95;;;3.20;99.90;;;;;;5051310;28;20477;-75
2023/12/03 10:32:57;;;;;;;37.63;16.58;;;3.30;99.90;;;;;;5050697;28;20041;-76
2023/12/03 10:35:24;;;;;;;34.95;16.67;;;3.30;99.90;;;;;;5050843;28;20044;-75
2023/12/03 10:37:50;;;;;;;36.65;16.35;;;3.40;99.90;;;;;;5048325;28;20048;-75
2023/12/03 10:40:18;;;;;;;36.88;18.45;;;3.40;99.90;;;;;;5042273;28;20041;-75
2023/12/03 10:42:45;;;;;;;32.78;15.43;;;3.40;99.90;;;;;;5039334;28;20063;-74
2023/12/03 10:45:12;;;;;;;36.75;16.27;;;3.40;99.90;;;;;;5040169;28;20041;-74
2023/12/03 10:47:38;;;;;;;32.22;14.52;;;3.50;99.90;;;;;;5042857;28;20053;-75
2023/12/03 10:50:06;;;;;;;32.15;14.80;;;3.50;99.90;;;;;;5046959;28;20573;-76
2023/12/03 10:52:33;;;;;;;33.38;17.00;;;3.50;99.90;;;;;;5040654;28;20670;-75
2023/12/03 10:54:59;;;;;;;31.50;15.45;;;3.60;99.90;;;;;;5045770;28;20504;-76
2023/12/03 10:57:32;;;;;;;30.55;15.18;;;3.50;99.90;;;;;;5041860;28;20033;-75
2023/12/03 11:00:05;;;;;;;35.72;15.55;;;3.50;99.90;;;;;;5048774;28;20084;-75
2023/12/03 11:02:39;;;;;;;37.42;16.95;;;3.50;99.90;;;;;;5043305;28;20388;-77
2023/12/03 11:05:05;;;;;;;30.20;16.65;;;3.40;99.90;;;;;;5050695;28;20079;-77
2023/12/03 11:07:33;;;;;;;30.67;15.13;;;3.40;99.90;;;;;;5045498;28;20495;-75
2023/12/03 11:09:59;;;;;;;34.58;16.08;;;3.40;99.90;;;;;;5047881;28;20045;-76
2023/12/03 11:12:25;;;;;;;35.67;16.40;;;3.50;99.90;;;;;;5038044;28;20090;-75
2023/12/03 11:14:55;;;;;;;29.95;14.30;;;3.40;99.90;;;;;;5044986;28;20037;-77
2023/12/03 11:17:33;;;;;;;28.42;13.52;;;3.50;99.90;;;;;;5052653;28;20052;-76
2023/12/03 11:20:06;;;;;;;30.02;14.40;;;3.40;99.90;;;;;;5046229;28;20433;-77
2023/12/03 11:22:40;;;;;;;29.35;13.68;;;3.40;99.90;;;;;;5052119;28;20044;-77
2023/12/03 11:25:14;;;;;;;30.50;13.70;;;3.40;99.90;;;;;;5048331;28;20052;-77
2023/12/03 11:27:41;;;;;;;33.60;12.82;;;3.40;99.90;;;;;;5050070;28;20056;-76
2023/12/03 11:30:08;;;;;;;30.83;14.32;;;3.40;99.90;;;;;;5044482;28;20047;-76
2023/12/03 11:32:35;;;;;;;30.10;12.77;;;3.40;99.90;;;;;;5049291;28;20518;-76
2023/12/03 11:35:04;;;;;;;28.13;14.05;;;3.40;99.90;;;;;;5042509;28;20124;-76
2023/12/03 11:37:31;;;;;;;29.90;13.80;;;3.40;99.90;;;;;;5068049;28;20075;-77
2023/12/03 11:40:08;;;;;;;28.38;14.15;;;3.40;99.90;;;;;;5045056;28;20514;-76
2023/12/03 11:42:42;;;;;;;28.17;13.30;;;3.40;99.90;;;;;;5052550;28;20053;-75
2023/12/03 11:45:25;;;;;;;28.48;14.60;;;3.40;99.90;;;;;;5051410;28;20036;-74
2023/12/03 11:48:10;;;;;;;31.05;15.32;;;3.30;99.90;;;;;;5048115;28;20106;-76
2023/12/03 11:50:43;;;;;;;33.00;14.88;;;3.30;99.90;;;;;;5052048;28;20072;-74
2023/12/03 11:53:15;;;;;;;32.38;15.40;;;3.30;99.90;;;;;;5045136;28;20408;-74
2023/12/03 11:55:43;;;;;;;34.10;14.45;;;3.30;99.90;;;;;;5045157;28;20046;-76
2023/12/03 11:58:09;;;;;;;34.03;16.25;;;3.30;99.90;;;;;;5056248;28;20160;-75
2023/12/03 12:00:35;;;;;;;33.97;15.68;;;3.30;99.90;;;;;;5051475;28;20168;-75
2023/12/03 12:03:03;;;;;;;34.83;16.63;;;3.30;99.90;;;;;;5047500;28;20032;-76
2023/12/03 12:05:29;;;;;;;;;;;3.30;99.90;;;;;;5045392;28;20060;-75
2023/12/03 12:08:01;;;;;;;34.75;17.17;;;3.30;99.90;;;;;;5046945;28;19925;-79
2023/12/03 12:10:31;;;;;;;38.25;18.48;;;3.30;99.90;;;;;;5046856;28;20064;-76
2023/12/03 12:13:01;;;;;;;38.95;16.98;;;3.30;99.90;;;;;;5054169;28;20103;-75
2023/12/03 12:15:27;;;;;;;35.88;18.75;;;3.40;99.90;;;;;;5052381;28;20736;-75
2023/12/03 12:17:53;;;;;;;33.08;16.92;;;3.30;99.90;;;;;;5045253;28;20266;-76
2023/12/03 12:20:36;;;;;;;37.13;16.33;;;3.40;99.90;;;;;;5033846;28;20045;-75
2023/12/03 12:23:02;;;;;;;39.17;17.73;;;3.20;99.90;;;;;;5042490;28;20044;-74
2023/12/03 12:25:28;;;;;;;31.00;15.07;;;3.20;99.90;;;;;;5043655;28;20037;-74
2023/12/03 12:27:54;;;;;;;32.45;14.65;;;3.20;99.90;;;;;;5033243;28;20053;-75
2023/12/03 12:30:27;;;;;;;33.30;15.38;;;3.20;99.90;;;;;;5044383;28;20091;-76
2023/12/03 12:32:52;;;;;;;31.85;14.88;;;3.20;99.90;;;;;;5046270;28;20044;-77
2023/12/03 12:35:23;;;;;;;36.42;16.17;;;3.30;99.90;;;;;;5047947;28;20392;-76